createdAt,value
2018-08-17T00:00:01.661Z,981.26
2018-08-17T00:01:01.609Z,981.28
2018-08-17T00:02:54.432Z,981.30
2018-08-17T00:03:54.352Z,981.29
2018-08-17T00:05:47.160Z,981.31
2018-08-17T00:06:47.110Z,981.30
2018-08-17T00:08:39.933Z,981.28
2018-08-17T00:09:39.851Z,981.28
2018-08-17T00:11:32.640Z,981.31
2018-08-17T00:12:32.591Z,981.30
2018-08-17T00:14:25.408Z,981.34
2018-08-17T00:15:25.329Z,981.32
2018-08-17T00:17:18.116Z,981.36
2018-08-17T00:18:18.066Z,981.36
2018-08-17T00:20:10.884Z,981.37
2018-08-17T00:21:10.804Z,981.36
2018-08-17T00:23:03.593Z,981.38
2018-08-17T00:24:03.541Z,981.36
2018-08-17T00:25:56.357Z,981.37
2018-08-17T00:26:56.278Z,981.40
2018-08-17T00:28:49.073Z,981.40
2018-08-17T00:29:49.020Z,981.39
2018-08-17T00:31:41.842Z,981.39
2018-08-17T00:32:41.762Z,981.43
2018-08-17T00:34:34.550Z,981.38
2018-08-17T00:35:34.501Z,981.41
2018-08-17T00:37:27.319Z,981.42
2018-08-17T00:38:27.237Z,981.38
2018-08-17T00:40:20.029Z,981.42
2018-08-17T00:41:19.976Z,981.41
2018-08-17T00:43:12.794Z,981.44
2018-08-17T00:44:12.715Z,981.38
2018-08-17T00:46:05.500Z,981.38
2018-08-17T00:47:05.450Z,981.36
2018-08-17T00:48:58.265Z,981.35
2018-08-17T00:49:58.184Z,981.32
2018-08-17T00:51:50.972Z,981.36
2018-08-17T00:52:50.923Z,981.34
2018-08-17T00:54:43.742Z,981.36
2018-08-17T00:55:43.662Z,981.40
2018-08-17T00:57:36.450Z,981.39
2018-08-17T00:58:36.399Z,981.40
2018-08-17T01:00:29.216Z,981.47
2018-08-17T01:01:29.141Z,981.46
2018-08-17T01:03:21.925Z,981.40
2018-08-17T01:04:21.873Z,981.43
2018-08-17T01:06:14.690Z,981.45
2018-08-17T01:07:14.609Z,981.48
2018-08-17T01:09:07.514Z,981.42
2018-08-17T01:10:07.342Z,981.47
2018-08-17T01:12:00.162Z,981.47
2018-08-17T01:13:00.084Z,981.47
2018-08-17T01:14:52.869Z,981.48
2018-08-17T01:15:52.821Z,981.51
2018-08-17T01:17:45.638Z,981.45
2018-08-17T01:18:45.558Z,981.48
2018-08-17T01:20:38.347Z,981.53
2018-08-17T01:21:38.296Z,981.50
2018-08-17T01:23:31.114Z,981.51
2018-08-17T01:24:31.035Z,981.51
2018-08-17T01:26:23.822Z,981.49
2018-08-17T01:27:23.772Z,981.49
2018-08-17T01:29:16.588Z,981.52
2018-08-17T01:30:16.508Z,981.49
2018-08-17T01:32:09.295Z,981.50
2018-08-17T01:33:09.243Z,981.43
2018-08-17T01:35:02.060Z,981.45
2018-08-17T01:36:01.979Z,981.44
2018-08-17T01:37:54.769Z,981.40
2018-08-17T01:38:54.715Z,981.40
2018-08-17T01:40:47.532Z,981.42
2018-08-17T01:41:47.453Z,981.40
2018-08-17T01:43:40.239Z,981.38
2018-08-17T01:44:40.187Z,981.39
2018-08-17T01:46:33.018Z,981.32
2018-08-17T01:47:32.925Z,981.33
2018-08-17T01:49:25.713Z,981.34
2018-08-17T01:50:25.664Z,981.33
2018-08-17T01:52:18.480Z,981.32
2018-08-17T01:53:18.400Z,981.26
2018-08-17T01:55:11.186Z,981.29
2018-08-17T01:56:11.134Z,981.28
2018-08-17T01:58:03.965Z,981.25
2018-08-17T01:59:03.872Z,981.29
2018-08-17T02:00:56.662Z,981.25
2018-08-17T02:01:56.611Z,981.25
2018-08-17T02:03:49.443Z,981.27
2018-08-17T02:04:49.347Z,981.27
2018-08-17T02:06:42.137Z,981.28
2018-08-17T02:07:42.087Z,981.25
2018-08-17T02:09:34.904Z,981.23
2018-08-17T02:10:34.823Z,981.27
2018-08-17T02:12:27.612Z,981.26
2018-08-17T02:13:27.562Z,981.28
2018-08-17T02:15:20.391Z,981.28
2018-08-17T02:16:20.297Z,981.21
2018-08-17T02:18:13.088Z,981.22
2018-08-17T02:19:13.036Z,981.21
2018-08-17T02:21:05.857Z,981.16
2018-08-17T02:22:05.777Z,981.18
2018-08-17T02:23:58.563Z,981.16
2018-08-17T02:24:58.513Z,981.16
2018-08-17T02:26:51.333Z,981.15
2018-08-17T02:27:51.254Z,981.12
2018-08-17T02:29:44.040Z,981.10
2018-08-17T02:30:43.990Z,981.11
2018-08-17T02:32:36.821Z,981.10
2018-08-17T02:33:36.728Z,981.13
2018-08-17T02:35:29.517Z,981.12
2018-08-17T02:36:29.466Z,981.08
2018-08-17T02:38:22.299Z,981.12
2018-08-17T02:39:22.219Z,981.11
2018-08-17T02:41:14.995Z,981.12
2018-08-17T02:42:14.946Z,981.14
2018-08-17T02:44:07.763Z,981.14
2018-08-17T02:45:07.683Z,981.13
2018-08-17T02:47:00.473Z,981.10
2018-08-17T02:48:00.424Z,981.08
2018-08-17T02:49:53.243Z,981.02
2018-08-17T02:50:53.173Z,981.04
2018-08-17T02:52:45.953Z,981.00
2018-08-17T02:53:45.903Z,981.05
2018-08-17T02:55:38.723Z,981.04
2018-08-17T02:56:38.645Z,981.08
2018-08-17T02:58:31.435Z,981.03
2018-08-17T02:59:31.437Z,981.05
2018-08-17T03:01:24.212Z,981.04
2018-08-17T03:02:24.133Z,981.04
2018-08-17T03:04:16.919Z,980.99
2018-08-17T03:05:16.880Z,981.01
2018-08-17T03:07:09.690Z,980.98
2018-08-17T03:08:09.617Z,980.99
2018-08-17T03:10:02.400Z,980.99
2018-08-17T03:11:02.347Z,980.97
2018-08-17T03:12:55.166Z,980.98
2018-08-17T03:13:55.084Z,980.99
2018-08-17T03:15:47.873Z,981.01
2018-08-17T03:16:47.824Z,980.98
2018-08-17T03:18:40.645Z,980.95
2018-08-17T03:19:40.564Z,980.97
2018-08-17T03:21:33.357Z,980.96
2018-08-17T03:22:33.309Z,980.95
2018-08-17T03:24:26.139Z,980.96
2018-08-17T03:25:26.046Z,980.98
2018-08-17T03:27:18.834Z,981.01
2018-08-17T03:28:18.786Z,980.99
2018-08-17T03:30:11.616Z,980.99
2018-08-17T03:31:11.526Z,981.04
2018-08-17T03:33:04.323Z,981.05
2018-08-17T03:34:04.275Z,981.02
2018-08-17T03:35:57.096Z,981.03
2018-08-17T03:36:57.016Z,981.01
2018-08-17T03:38:49.801Z,981.01
2018-08-17T03:39:49.750Z,980.99
2018-08-17T03:41:42.583Z,981.04
2018-08-17T03:42:42.490Z,981.01
2018-08-17T03:44:35.278Z,980.96
2018-08-17T03:45:35.230Z,981.00
2018-08-17T03:47:28.049Z,981.00
2018-08-17T03:48:27.968Z,981.05
2018-08-17T03:50:20.756Z,981.06
2018-08-17T03:51:20.708Z,981.07
2018-08-17T03:53:13.527Z,981.09
2018-08-17T03:54:13.448Z,981.10
2018-08-17T03:56:06.239Z,981.12
2018-08-17T03:57:06.186Z,981.14
2018-08-17T03:58:59.006Z,981.17
2018-08-17T03:59:58.925Z,981.16
2018-08-17T04:01:51.714Z,981.17
2018-08-17T04:02:51.665Z,981.15
2018-08-17T04:04:44.498Z,981.14
2018-08-17T04:05:44.406Z,981.19
2018-08-17T04:07:37.195Z,981.14
2018-08-17T04:08:37.149Z,981.21
2018-08-17T04:10:29.967Z,981.18
2018-08-17T04:11:29.885Z,981.20
2018-08-17T04:13:22.677Z,981.21
2018-08-17T04:14:22.627Z,981.20
2018-08-17T04:16:15.445Z,981.23
2018-08-17T04:17:15.368Z,981.25
2018-08-17T04:19:08.156Z,981.24
2018-08-17T04:20:08.106Z,981.23
2018-08-17T04:22:00.941Z,981.25
2018-08-17T04:23:00.846Z,981.26
2018-08-17T04:24:53.637Z,981.23
2018-08-17T04:25:53.584Z,981.25
2018-08-17T04:27:46.408Z,981.22
2018-08-17T04:28:46.326Z,981.25
2018-08-17T04:30:39.118Z,981.27
2018-08-17T04:31:39.065Z,981.27
2018-08-17T04:33:31.898Z,981.29
2018-08-17T04:34:31.809Z,981.25
2018-08-17T04:36:24.597Z,981.24
2018-08-17T04:37:24.547Z,981.28
2018-08-17T04:39:17.367Z,981.30
2018-08-17T04:40:17.287Z,981.29
2018-08-17T04:42:31.067Z,981.32
2018-08-17T04:43:10.030Z,981.34
2018-08-17T04:45:02.848Z,981.35
2018-08-17T04:46:02.767Z,981.35
2018-08-17T04:47:55.556Z,981.34
2018-08-17T04:48:55.508Z,981.31
2018-08-17T04:50:48.324Z,981.35
2018-08-17T04:51:48.247Z,981.39
2018-08-17T04:53:41.035Z,981.40
2018-08-17T04:54:40.984Z,981.38
2018-08-17T04:56:33.803Z,981.37
2018-08-17T04:57:33.723Z,981.37
2018-08-17T04:59:26.518Z,981.34
2018-08-17T05:00:26.465Z,981.30
2018-08-17T05:02:19.299Z,981.34
2018-08-17T05:03:19.276Z,981.32
2018-08-17T05:05:12.009Z,981.40
2018-08-17T05:06:11.958Z,981.36
2018-08-17T05:08:04.777Z,981.41
2018-08-17T05:09:04.751Z,981.38
2018-08-17T05:10:57.488Z,981.37
2018-08-17T05:11:57.440Z,981.41
2018-08-17T05:13:50.258Z,981.40
2018-08-17T05:14:50.178Z,981.40
2018-08-17T05:16:42.971Z,981.42
2018-08-17T05:17:42.923Z,981.41
2018-08-17T05:19:35.754Z,981.47
2018-08-17T05:20:35.666Z,981.48
2018-08-17T05:22:28.452Z,981.49
2018-08-17T05:23:28.402Z,981.52
2018-08-17T05:25:21.223Z,981.51
2018-08-17T05:26:21.144Z,981.52
2018-08-17T05:28:13.929Z,981.55
2018-08-17T05:29:13.880Z,981.54
2018-08-17T05:31:06.698Z,981.55
2018-08-17T05:32:06.618Z,981.58
2018-08-17T05:33:59.407Z,981.55
2018-08-17T05:34:59.358Z,981.60
2018-08-17T05:36:52.177Z,981.62
2018-08-17T05:37:52.097Z,981.63
2018-08-17T05:39:44.886Z,981.64
2018-08-17T05:40:44.836Z,981.67
2018-08-17T05:42:37.657Z,981.67
2018-08-17T05:43:37.576Z,981.67
2018-08-17T05:45:30.363Z,981.64
2018-08-17T05:46:30.314Z,981.68
2018-08-17T05:48:23.168Z,981.66
2018-08-17T05:49:23.084Z,981.65
2018-08-17T05:51:15.874Z,981.71
2018-08-17T05:52:15.828Z,981.71
2018-08-17T05:54:08.651Z,981.65
2018-08-17T05:55:08.566Z,981.65
2018-08-17T05:57:01.357Z,981.70
2018-08-17T05:58:01.307Z,981.65
2018-08-17T05:59:54.126Z,981.72
2018-08-17T06:00:54.052Z,981.70
2018-08-17T06:02:46.890Z,981.73
2018-08-17T06:03:46.790Z,981.70
2018-08-17T06:05:39.609Z,981.74
2018-08-17T06:06:39.531Z,981.73
2018-08-17T06:08:32.319Z,981.77
2018-08-17T06:09:32.268Z,981.71
2018-08-17T06:11:25.215Z,981.77
2018-08-17T06:12:25.009Z,981.78
2018-08-17T06:14:17.796Z,981.80
2018-08-17T06:15:17.748Z,981.83
2018-08-17T06:17:10.581Z,981.84
2018-08-17T06:18:10.489Z,981.84
2018-08-17T06:20:03.280Z,981.87
2018-08-17T06:21:03.230Z,981.87
2018-08-17T06:22:56.056Z,981.93
2018-08-17T06:23:55.970Z,981.95
2018-08-17T06:25:48.763Z,981.94
2018-08-17T06:26:48.714Z,981.95
2018-08-17T06:28:41.528Z,981.96
2018-08-17T06:29:41.448Z,981.95
2018-08-17T06:31:34.238Z,981.96
2018-08-17T06:32:34.187Z,981.99
2018-08-17T06:34:27.004Z,981.99
2018-08-17T06:35:26.925Z,982.00
2018-08-17T06:37:19.763Z,981.96
2018-08-17T06:38:19.667Z,981.95
2018-08-17T06:40:12.484Z,982.00
2018-08-17T06:41:12.407Z,981.98
2018-08-17T06:43:05.195Z,981.96
2018-08-17T06:44:05.149Z,981.96
2018-08-17T06:45:57.967Z,981.95
2018-08-17T06:46:57.887Z,981.98
2018-08-17T06:48:50.675Z,981.95
2018-08-17T06:49:50.624Z,981.99
2018-08-17T06:51:43.443Z,981.97
2018-08-17T06:52:43.363Z,981.99
2018-08-17T06:54:36.153Z,981.93
2018-08-17T06:55:36.101Z,981.92
2018-08-17T06:57:28.938Z,981.93
2018-08-17T06:58:28.842Z,981.94
2018-08-17T07:00:21.634Z,981.95
2018-08-17T07:01:21.585Z,982.00
2018-08-17T07:03:14.418Z,981.93
2018-08-17T07:04:14.326Z,981.95
2018-08-17T07:06:07.117Z,981.89
2018-08-17T07:07:07.069Z,981.96
2018-08-17T07:08:59.923Z,981.92
2018-08-17T07:09:59.810Z,981.97
2018-08-17T07:11:52.601Z,981.97
2018-08-17T07:12:52.553Z,981.92
2018-08-17T07:14:45.383Z,981.98
2018-08-17T07:15:45.294Z,981.91
2018-08-17T07:17:38.077Z,981.94
2018-08-17T07:18:38.029Z,981.97
2018-08-17T07:20:30.862Z,981.99
2018-08-17T07:21:30.783Z,982.00
2018-08-17T07:23:23.559Z,982.01
2018-08-17T07:24:23.508Z,982.03
2018-08-17T07:26:16.408Z,982.02
2018-08-17T07:27:16.249Z,982.02
2018-08-17T07:29:09.040Z,982.05
2018-08-17T07:30:08.990Z,982.06
2018-08-17T07:32:01.815Z,982.06
2018-08-17T07:33:01.730Z,982.09
2018-08-17T07:34:54.519Z,982.08
2018-08-17T07:35:54.495Z,982.09
2018-08-17T07:37:47.290Z,982.15
2018-08-17T07:38:47.212Z,982.12
2018-08-17T07:40:41.824Z,982.14
2018-08-17T07:41:40.219Z,982.16
2018-08-17T07:43:34.406Z,982.14
2018-08-17T07:44:32.970Z,982.15
2018-08-17T07:46:25.766Z,982.19
2018-08-17T07:47:25.717Z,982.23
2018-08-17T07:49:18.539Z,982.23
2018-08-17T07:50:18.456Z,982.23
2018-08-17T07:52:11.247Z,982.20
2018-08-17T07:53:11.199Z,982.23
2018-08-17T07:55:04.020Z,982.20
2018-08-17T07:56:03.941Z,982.30
2018-08-17T07:57:56.730Z,982.27
2018-08-17T07:58:56.701Z,982.26
2018-08-17T08:00:49.502Z,982.28
2018-08-17T08:01:49.424Z,982.33
2018-08-17T08:03:42.220Z,982.32
2018-08-17T08:04:42.169Z,982.33
2018-08-17T08:06:35.002Z,982.36
2018-08-17T08:07:34.915Z,982.37
2018-08-17T08:09:27.702Z,982.44
2018-08-17T08:10:27.654Z,982.42
2018-08-17T08:12:20.488Z,982.47
2018-08-17T08:13:20.395Z,982.49
2018-08-17T08:15:13.191Z,982.48
2018-08-17T08:16:13.138Z,982.49
2018-08-17T08:18:05.974Z,982.52
2018-08-17T08:19:05.882Z,982.52
2018-08-17T08:20:58.672Z,982.48
2018-08-17T08:21:58.623Z,982.54
2018-08-17T08:23:51.448Z,982.53
2018-08-17T08:24:51.367Z,982.56
2018-08-17T08:26:44.164Z,982.57
2018-08-17T08:27:44.116Z,982.55
2018-08-17T08:29:36.937Z,982.57
2018-08-17T08:30:36.857Z,982.62
2018-08-17T08:32:29.785Z,982.61
2018-08-17T08:33:29.602Z,982.64
2018-08-17T08:35:22.429Z,982.66
2018-08-17T08:36:22.344Z,982.62
2018-08-17T08:38:15.136Z,982.63
2018-08-17T08:39:15.084Z,982.66
2018-08-17T08:41:07.919Z,982.62
2018-08-17T08:42:07.832Z,982.64
2018-08-17T08:44:00.623Z,982.63
2018-08-17T08:45:00.572Z,982.65
2018-08-17T08:46:53.405Z,982.67
2018-08-17T08:47:53.315Z,982.62
2018-08-17T08:49:46.110Z,982.68
2018-08-17T08:50:46.056Z,982.68
2018-08-17T08:52:38.879Z,982.70
2018-08-17T08:53:38.800Z,982.69
2018-08-17T08:55:31.592Z,982.69
2018-08-17T08:56:31.543Z,982.68
2018-08-17T08:58:24.378Z,982.72
2018-08-17T08:59:24.285Z,982.71
2018-08-17T09:01:17.079Z,982.70
2018-08-17T09:02:17.031Z,982.68
2018-08-17T09:04:09.867Z,982.74
2018-08-17T09:05:09.774Z,982.69
2018-08-17T09:07:02.566Z,982.74
2018-08-17T09:08:02.524Z,982.70
2018-08-17T09:09:55.350Z,982.71
2018-08-17T09:10:55.261Z,982.67
2018-08-17T09:12:48.056Z,982.66
2018-08-17T09:13:48.104Z,982.69
2018-08-17T09:15:40.840Z,982.69
2018-08-17T09:16:40.747Z,982.67
2018-08-17T09:18:33.540Z,982.71
2018-08-17T09:19:33.491Z,982.71
2018-08-17T09:21:26.326Z,982.69
2018-08-17T09:22:26.235Z,982.69
2018-08-17T09:24:19.027Z,982.67
2018-08-17T09:25:18.979Z,982.68
2018-08-17T09:27:11.812Z,982.70
2018-08-17T09:28:11.720Z,982.69
2018-08-17T09:30:04.518Z,982.68
2018-08-17T09:31:04.464Z,982.65
2018-08-17T09:32:57.289Z,982.70
2018-08-17T09:33:57.208Z,982.69
2018-08-17T09:35:50.000Z,982.68
2018-08-17T09:36:49.951Z,982.72
2018-08-17T09:38:42.772Z,982.65
2018-08-17T09:39:42.694Z,982.67
2018-08-17T09:41:35.506Z,982.63
2018-08-17T09:42:35.438Z,982.65
2018-08-17T09:44:28.275Z,982.62
2018-08-17T09:45:28.183Z,982.62
2018-08-17T09:47:20.974Z,982.67
2018-08-17T09:48:20.925Z,982.67
2018-08-17T09:50:13.761Z,982.65
2018-08-17T09:51:13.717Z,982.68
2018-08-17T09:53:06.461Z,982.66
2018-08-17T09:54:06.413Z,982.68
2018-08-17T09:55:59.235Z,982.63
2018-08-17T09:56:59.161Z,982.62
2018-08-17T09:58:51.948Z,982.63
2018-08-17T09:59:51.900Z,982.63
2018-08-17T10:01:44.730Z,982.58
2018-08-17T10:02:44.645Z,982.54
2018-08-17T10:04:37.439Z,982.54
2018-08-17T10:05:37.387Z,982.52
2018-08-17T10:07:30.223Z,982.52
2018-08-17T10:08:30.131Z,982.51
2018-08-17T10:10:22.924Z,982.50
2018-08-17T10:11:22.875Z,982.48
2018-08-17T10:13:15.696Z,982.47
2018-08-17T10:14:15.620Z,982.45
2018-08-17T10:16:08.412Z,982.44
2018-08-17T10:17:08.363Z,982.45
2018-08-17T10:19:01.186Z,982.45
2018-08-17T10:20:01.111Z,982.48
2018-08-17T10:21:54.293Z,982.46
2018-08-17T10:22:53.853Z,982.44
2018-08-17T10:24:46.676Z,982.46
2018-08-17T10:25:46.598Z,982.43
2018-08-17T10:27:39.389Z,982.47
2018-08-17T10:28:39.345Z,982.46
2018-08-17T10:30:32.182Z,982.49
2018-08-17T10:31:32.084Z,982.47
2018-08-17T10:33:24.876Z,982.48
2018-08-17T10:34:24.828Z,982.48
2018-08-17T10:36:17.661Z,982.47
2018-08-17T10:37:17.568Z,982.45
2018-08-17T10:39:10.361Z,982.46
2018-08-17T10:40:10.313Z,982.41
2018-08-17T10:42:03.165Z,982.42
2018-08-17T10:43:03.091Z,982.42
2018-08-17T10:44:55.876Z,982.40
2018-08-17T10:45:55.828Z,982.38
2018-08-17T10:47:48.665Z,982.47
2018-08-17T10:48:48.647Z,982.44
2018-08-17T10:50:41.371Z,982.40
2018-08-17T10:51:41.317Z,982.40
2018-08-17T10:53:34.150Z,982.45
2018-08-17T10:54:34.057Z,982.39
2018-08-17T10:56:26.851Z,982.47
2018-08-17T10:57:26.835Z,982.41
2018-08-17T10:59:19.637Z,982.47
2018-08-17T11:00:19.546Z,982.44
2018-08-17T11:02:12.339Z,982.40
2018-08-17T11:03:12.292Z,982.38
2018-08-17T11:05:05.125Z,982.37
2018-08-17T11:06:05.034Z,982.39
2018-08-17T11:07:57.833Z,982.31
2018-08-17T11:08:57.783Z,982.26
2018-08-17T11:10:50.618Z,982.28
2018-08-17T11:11:50.529Z,982.25
2018-08-17T11:13:43.323Z,982.28
2018-08-17T11:14:43.275Z,982.27
2018-08-17T11:16:36.114Z,982.30
2018-08-17T11:17:36.021Z,982.28
2018-08-17T11:19:28.813Z,982.20
2018-08-17T11:20:28.764Z,982.24
2018-08-17T11:22:21.586Z,982.20
2018-08-17T11:23:21.507Z,982.18
2018-08-17T11:25:14.298Z,982.18
2018-08-17T11:26:14.253Z,982.14
2018-08-17T11:28:07.075Z,982.09
2018-08-17T11:29:06.995Z,982.10
2018-08-17T11:30:59.786Z,982.19
2018-08-17T11:31:59.740Z,982.16
2018-08-17T11:33:52.564Z,982.14
2018-08-17T11:34:52.480Z,982.12
2018-08-17T11:36:45.272Z,982.19
2018-08-17T11:37:45.223Z,982.16
2018-08-17T11:39:38.059Z,982.15
2018-08-17T11:40:37.967Z,982.19
2018-08-17T11:42:30.760Z,982.13
2018-08-17T11:43:30.711Z,982.16
2018-08-17T11:45:23.532Z,982.15
2018-08-17T11:46:23.454Z,982.14
2018-08-17T11:48:16.246Z,982.19
2018-08-17T11:49:16.199Z,982.17
2018-08-17T11:51:09.019Z,982.17
2018-08-17T11:52:08.943Z,982.24
2018-08-17T11:54:01.904Z,982.22
2018-08-17T11:55:01.688Z,982.20
2018-08-17T11:56:54.520Z,982.21
2018-08-17T11:57:54.428Z,982.18
2018-08-17T11:59:47.224Z,982.24
2018-08-17T12:00:47.174Z,982.21
2018-08-17T12:02:39.994Z,982.20
2018-08-17T12:03:39.916Z,982.25
2018-08-17T12:05:32.736Z,982.22
2018-08-17T12:06:32.660Z,982.22
2018-08-17T12:08:25.505Z,982.20
2018-08-17T12:09:25.404Z,982.22
2018-08-17T12:11:18.199Z,982.22
2018-08-17T12:12:18.148Z,982.21
2018-08-17T12:14:10.984Z,982.25
2018-08-17T12:15:10.892Z,982.25
2018-08-17T12:17:03.684Z,982.31
2018-08-17T12:18:03.635Z,982.24
2018-08-17T12:19:56.459Z,982.25
2018-08-17T12:20:56.379Z,982.21
2018-08-17T12:22:49.173Z,982.21
2018-08-17T12:23:49.124Z,982.20
2018-08-17T12:25:41.963Z,982.18
2018-08-17T12:26:41.865Z,982.14
2018-08-17T12:28:34.658Z,982.16
2018-08-17T12:29:34.608Z,982.18
2018-08-17T12:31:27.445Z,982.15
2018-08-17T12:32:27.353Z,982.15
2018-08-17T12:34:20.145Z,982.17
2018-08-17T12:35:20.097Z,982.18
2018-08-17T12:37:12.919Z,982.12
2018-08-17T12:38:12.840Z,982.10
2018-08-17T12:40:05.671Z,982.13
2018-08-17T12:41:05.582Z,982.12
2018-08-17T12:42:58.404Z,982.05
2018-08-17T12:43:58.325Z,982.07
2018-08-17T12:45:51.118Z,982.07
2018-08-17T12:46:51.073Z,982.07
2018-08-17T12:48:43.894Z,982.05
2018-08-17T12:49:43.814Z,982.01
2018-08-17T12:51:36.612Z,982.00
2018-08-17T12:52:36.558Z,982.00
2018-08-17T12:54:29.381Z,981.96
2018-08-17T12:55:29.303Z,981.94
2018-08-17T12:57:22.099Z,981.93
2018-08-17T12:58:22.047Z,982.00
2018-08-17T13:00:14.885Z,982.00
2018-08-17T13:01:14.794Z,981.98
2018-08-17T13:03:07.587Z,982.01
2018-08-17T13:04:07.540Z,982.02
2018-08-17T13:06:00.364Z,981.99
2018-08-17T13:07:00.286Z,982.02
2018-08-17T13:08:53.128Z,982.05
2018-08-17T13:09:53.030Z,982.02
2018-08-17T13:11:45.854Z,982.04
2018-08-17T13:12:45.776Z,982.01
2018-08-17T13:14:38.567Z,982.00
2018-08-17T13:15:38.519Z,982.01
2018-08-17T13:17:31.359Z,982.03
2018-08-17T13:18:31.266Z,982.00
2018-08-17T13:20:24.060Z,982.06
2018-08-17T13:21:24.010Z,982.02
2018-08-17T13:23:16.851Z,982.07
2018-08-17T13:24:16.797Z,982.07
2018-08-17T13:26:09.548Z,982.08
2018-08-17T13:27:09.501Z,982.07
2018-08-17T13:29:02.335Z,982.03
2018-08-17T13:30:02.245Z,981.98
2018-08-17T13:31:55.039Z,982.00
2018-08-17T13:32:54.990Z,982.02
2018-08-17T13:34:47.814Z,982.00
2018-08-17T13:35:47.734Z,982.06
2018-08-17T13:37:40.571Z,982.03
2018-08-17T13:38:40.478Z,982.05
2018-08-17T13:40:33.927Z,982.02
2018-08-17T13:41:33.223Z,982.04
2018-08-17T13:43:26.013Z,982.00
2018-08-17T13:44:25.967Z,982.01
2018-08-17T13:46:18.788Z,982.01
2018-08-17T13:47:18.709Z,982.00
2018-08-17T13:49:11.502Z,982.00
2018-08-17T13:50:11.455Z,981.95
2018-08-17T13:52:04.276Z,981.94
2018-08-17T13:53:04.198Z,981.92
2018-08-17T13:54:56.989Z,981.89
2018-08-17T13:55:56.944Z,981.86
2018-08-17T13:57:49.764Z,981.85
2018-08-17T13:58:49.686Z,981.88
2018-08-17T14:00:42.479Z,981.84
2018-08-17T14:01:42.431Z,981.86
2018-08-17T14:03:35.265Z,981.81
2018-08-17T14:04:35.175Z,981.79
2018-08-17T14:06:27.973Z,981.75
2018-08-17T14:07:27.922Z,981.76
2018-08-17T14:09:20.760Z,981.74
2018-08-17T14:10:20.668Z,981.73
2018-08-17T14:12:13.460Z,981.74
2018-08-17T14:13:13.411Z,981.76
2018-08-17T14:15:06.234Z,981.69
2018-08-17T14:16:06.156Z,981.70
2018-08-17T14:17:58.949Z,981.77
2018-08-17T14:18:58.901Z,981.74
2018-08-17T14:20:51.729Z,981.68
2018-08-17T14:21:51.655Z,981.70
2018-08-17T14:23:44.445Z,981.69
2018-08-17T14:24:44.401Z,981.73
2018-08-17T14:26:37.218Z,981.72
2018-08-17T14:27:37.141Z,981.71
2018-08-17T14:29:29.935Z,981.70
2018-08-17T14:30:29.918Z,981.70
2018-08-17T14:32:22.720Z,981.64
2018-08-17T14:33:22.630Z,981.63
2018-08-17T14:35:15.490Z,981.65
2018-08-17T14:36:15.375Z,981.64
2018-08-17T14:38:08.200Z,981.69
2018-08-17T14:39:08.118Z,981.73
2018-08-17T14:41:00.907Z,981.64
2018-08-17T14:42:00.859Z,981.65
2018-08-17T14:43:53.691Z,981.67
2018-08-17T14:44:53.600Z,981.70
2018-08-17T14:46:46.392Z,981.64
2018-08-17T14:47:46.342Z,981.66
2018-08-17T14:49:39.166Z,981.60
2018-08-17T14:50:39.087Z,981.63
2018-08-17T14:52:31.878Z,981.64
2018-08-17T14:53:31.827Z,981.65
2018-08-17T14:55:24.661Z,981.71
2018-08-17T14:56:24.652Z,981.74
2018-08-17T14:58:17.357Z,981.69
2018-08-17T14:59:17.308Z,981.75
2018-08-17T15:01:10.216Z,981.78
2018-08-17T15:02:10.050Z,981.82
2018-08-17T15:04:02.840Z,981.82
2018-08-17T15:05:02.794Z,981.81
2018-08-17T15:06:55.622Z,981.77
2018-08-17T15:07:55.529Z,981.80
2018-08-17T15:09:48.318Z,981.74
2018-08-17T15:10:48.271Z,981.79
2018-08-17T15:12:41.171Z,981.77
2018-08-17T15:13:41.098Z,981.82
2018-08-17T15:15:33.807Z,981.78
2018-08-17T15:16:33.759Z,981.81
2018-08-17T15:18:26.593Z,981.84
2018-08-17T15:19:26.510Z,981.82
2018-08-17T15:21:19.299Z,981.82
2018-08-17T15:22:19.249Z,981.77
2018-08-17T15:24:12.064Z,981.81
2018-08-17T15:25:11.985Z,981.79
2018-08-17T15:27:04.778Z,981.78
2018-08-17T15:28:04.728Z,981.74
2018-08-17T15:29:57.562Z,981.78
2018-08-17T15:30:57.473Z,981.73
2018-08-17T15:32:50.261Z,981.77
2018-08-17T15:33:50.213Z,981.74
2018-08-17T15:35:43.039Z,981.80
2018-08-17T15:36:42.955Z,981.80
2018-08-17T15:38:35.863Z,981.82
2018-08-17T15:39:35.695Z,981.79
2018-08-17T15:41:28.666Z,981.77
2018-08-17T15:42:28.440Z,981.76
2018-08-17T15:44:21.231Z,981.75
2018-08-17T15:45:21.190Z,981.74
2018-08-17T15:47:14.001Z,981.73
2018-08-17T15:48:13.921Z,981.72
2018-08-17T15:50:06.712Z,981.71
2018-08-17T15:51:06.719Z,981.74
2018-08-17T15:52:59.483Z,981.75
2018-08-17T15:53:59.404Z,981.72
2018-08-17T15:55:52.193Z,981.72
2018-08-17T15:56:52.146Z,981.77
2018-08-17T15:58:44.980Z,981.74
2018-08-17T15:59:44.889Z,981.76
2018-08-17T16:01:37.682Z,981.76
2018-08-17T16:02:37.632Z,981.69
2018-08-17T16:04:30.504Z,981.72
2018-08-17T16:05:30.375Z,981.71
2018-08-17T16:07:23.166Z,981.73
2018-08-17T16:08:23.152Z,981.71
2018-08-17T16:10:15.968Z,981.75
2018-08-17T16:11:15.859Z,981.68
2018-08-17T16:13:08.764Z,981.72
2018-08-17T16:14:08.600Z,981.73
2018-08-17T16:16:01.426Z,981.77
2018-08-17T16:17:01.343Z,981.83
2018-08-17T16:18:54.132Z,981.85
2018-08-17T16:19:54.083Z,981.88
2018-08-17T16:21:46.904Z,981.93
2018-08-17T16:22:46.826Z,981.89
2018-08-17T16:24:39.665Z,981.90
2018-08-17T16:25:39.570Z,981.89
2018-08-17T16:27:32.391Z,981.91
2018-08-17T16:28:32.309Z,981.92
2018-08-17T16:30:25.099Z,981.94
2018-08-17T16:31:25.049Z,981.99
2018-08-17T16:33:17.870Z,981.98
2018-08-17T16:34:17.790Z,981.97
2018-08-17T16:36:10.582Z,981.92
2018-08-17T16:37:10.539Z,981.95
2018-08-17T16:39:03.366Z,981.95
2018-08-17T16:40:03.273Z,981.93
2018-08-17T16:41:56.065Z,981.95
2018-08-17T16:42:56.017Z,981.98
2018-08-17T16:44:48.988Z,982.02
2018-08-17T16:45:48.759Z,981.95
2018-08-17T16:47:41.550Z,981.96
2018-08-17T16:48:41.503Z,982.01
2018-08-17T16:50:34.326Z,982.02
2018-08-17T16:51:34.246Z,982.04
2018-08-17T16:53:27.035Z,982.05
2018-08-17T16:54:27.007Z,982.05
2018-08-17T16:56:19.807Z,982.05
2018-08-17T16:57:19.729Z,982.07
2018-08-17T16:59:12.519Z,982.09
2018-08-17T17:00:12.474Z,982.08
2018-08-17T17:02:05.292Z,982.15
2018-08-17T17:03:05.212Z,982.15
2018-08-17T17:04:58.003Z,982.15
2018-08-17T17:05:57.954Z,982.15
2018-08-17T17:07:50.777Z,982.15
2018-08-17T17:08:50.700Z,982.17
2018-08-17T17:10:43.490Z,982.20
2018-08-17T17:11:43.440Z,982.21
2018-08-17T17:13:36.263Z,982.23
2018-08-17T17:14:36.184Z,982.18
2018-08-17T17:16:28.976Z,982.28
2018-08-17T17:17:28.929Z,982.22
2018-08-17T17:19:21.747Z,982.27
2018-08-17T17:20:21.670Z,982.27
2018-08-17T17:22:14.459Z,982.30
2018-08-17T17:23:14.409Z,982.32
2018-08-17T17:25:07.243Z,982.37
2018-08-17T17:26:07.156Z,982.39
2018-08-17T17:27:59.943Z,982.41
2018-08-17T17:28:59.903Z,982.41
2018-08-17T17:30:52.718Z,982.43
2018-08-17T17:31:52.636Z,982.43
2018-08-17T17:33:45.428Z,982.47
2018-08-17T17:34:45.462Z,982.50
2018-08-17T17:36:38.203Z,982.48
2018-08-17T17:37:38.119Z,982.51
2018-08-17T17:39:30.938Z,982.57
2018-08-17T17:40:30.963Z,982.60
2018-08-17T17:42:23.712Z,982.65
2018-08-17T17:43:23.711Z,982.69
2018-08-17T17:45:16.423Z,982.70
2018-08-17T17:46:16.375Z,982.67
2018-08-17T17:48:09.195Z,982.69
2018-08-17T17:49:09.120Z,982.69
2018-08-17T17:51:01.911Z,982.73
2018-08-17T17:52:01.861Z,982.77
2018-08-17T17:53:54.680Z,982.81
2018-08-17T17:54:54.600Z,982.82
2018-08-17T17:56:47.393Z,982.90